sensor_id;sensor_type;location;lat;lon;timestamp;pressure;altitude;pressure_sealevel;temperature;humidity
71774;BME280;59607;52.130;5.430;2024-02-26T00:00:43;100109.94;;;5.39;100.00
71774;BME280;59607;52.130;5.430;2024-02-26T00:03:15;100108.31;;;5.38;100.00
71774;BME280;59607;52.130;5.430;2024-02-26T00:05:42;100118.03;;;5.36;100.00
71774;BME280;59607;52.130;5.430;2024-02-26T00:08:09;100113.94;;;5.33;100.00
71774;BME280;59607;52.130;5.430;2024-02-26T00:10:41;100116.69;;;5.31;100.00
71774;BME280;59607;52.130;5.430;2024-02-26T00:13:13;100115.19;;;5.29;100.00
71774;BME280;59607;52.130;5.430;2024-02-26T00:15:44;100117.13;;;5.27;100.00
71774;BME280;59607;52.130;5.430;2024-02-26T00:18:10;100117.28;;;5.25;100.00
71774;BME280;59607;52.130;5.430;2024-02-26T00:20:47;100120.97;;;5.23;100.00
71774;BME280;59607;52.130;5.430;2024-02-26T00:23:23;100124.53;;;5.22;100.00
71774;BME280;59607;52.130;5.430;2024-02-26T00:25:53;100123.72;;;5.21;100.00
71774;BME280;59607;52.130;5.430;2024-02-26T00:28:26;100127.28;;;5.20;100.00
71774;BME280;59607;52.130;5.430;2024-02-26T00:30:57;100124.16;;;5.16;100.00
71774;BME280;59607;52.130;5.430;2024-02-26T00:33:26;100123.47;;;5.14;100.00
71774;BME280;59607;52.130;5.430;2024-02-26T00:35:58;100128.16;;;5.11;100.00
71774;BME280;59607;52.130;5.430;2024-02-26T00:38:25;100124.88;;;5.09;100.00
71774;BME280;59607;52.130;5.430;2024-02-26T00:40:57;100126.81;;;5.06;100.00
71774;BME280;59607;52.130;5.430;2024-02-26T00:43:23;100122.03;;;5.02;100.00
71774;BME280;59607;52.130;5.430;2024-02-26T00:45:53;100121.34;;;5.00;100.00
71774;BME280;59607;52.130;5.430;2024-02-26T00:48:22;100123.16;;;4.99;100.00
71774;BME280;59607;52.130;5.430;2024-02-26T00:50:55;100125.91;;;4.98;100.00
71774;BME280;59607;52.130;5.430;2024-02-26T00:53:32;100123.44;;;4.96;100.00
71774;BME280;59607;52.130;5.430;2024-02-26T00:56:13;100128.09;;;4.92;100.00
71774;BME280;59607;52.130;5.430;2024-02-26T00:58:47;100140.28;;;4.92;100.00
71774;BME280;59607;52.130;5.430;2024-02-26T01:01:14;100124.97;;;4.89;100.00
71774;BME280;59607;52.130;5.430;2024-02-26T01:03:40;100124.97;;;4.89;100.00
71774;BME280;59607;52.130;5.430;2024-02-26T01:06:13;100136.03;;;4.91;100.00
71774;BME280;59607;52.130;5.430;2024-02-26T01:08:39;100135.34;;;4.89;100.00
71774;BME280;59607;52.130;5.430;2024-02-26T01:11:06;100126.72;;;4.88;100.00
71774;BME280;59607;52.130;5.430;2024-02-26T01:13:36;100131.94;;;4.88;100.00
71774;BME280;59607;52.130;5.430;2024-02-26T01:16:03;100132.06;;;4.87;100.00
71774;BME280;59607;52.130;5.430;2024-02-26T01:18:35;100127.84;;;4.86;100.00
71774;BME280;59607;52.130;5.430;2024-02-26T01:21:04;100129.47;;;4.87;100.00
71774;BME280;59607;52.130;5.430;2024-02-26T01:23:35;100126.09;;;4.86;100.00
71774;BME280;59607;52.130;5.430;2024-02-26T01:26:03;100131.28;;;4.86;100.00
71774;BME280;59607;52.130;5.430;2024-02-26T01:28:31;100125.09;;;4.87;100.00
71774;BME280;59607;52.130;5.430;2024-02-26T01:31:02;100115.41;;;4.89;100.00
71774;BME280;59607;52.130;5.430;2024-02-26T01:33:32;100123.06;;;4.91;100.00
71774;BME280;59607;52.130;5.430;2024-02-26T01:35:59;100110.34;;;4.88;100.00
71774;BME280;59607;52.130;5.430;2024-02-26T01:38:32;100110.34;;;4.88;100.00
71774;BME280;59607;52.130;5.430;2024-02-26T01:41:02;100105.16;;;4.88;100.00
71774;BME280;59607;52.130;5.430;2024-02-26T01:43:29;100105.94;;;4.88;100.00
71774;BME280;59607;52.130;5.430;2024-02-26T01:46:03;100113.75;;;4.88;100.00
71774;BME280;59607;52.130;5.430;2024-02-26T01:48:38;100112.94;;;4.88;100.00
71774;BME280;59607;52.130;5.430;2024-02-26T01:51:05;100114.44;;;4.90;100.00
71774;BME280;59607;52.130;5.430;2024-02-26T01:53:35;100113.47;;;4.91;100.00
71774;BME280;59607;52.130;5.430;2024-02-26T01:56:10;100120.31;;;4.92;100.00
71774;BME280;59607;52.130;5.430;2024-02-26T01:58:37;100120.16;;;4.94;100.00
71774;BME280;59607;52.130;5.430;2024-02-26T02:01:04;100126.03;;;4.96;100.00
71774;BME280;59607;52.130;5.430;2024-02-26T02:03:31;100128.34;;;4.99;100.00
71774;BME280;59607;52.130;5.430;2024-02-26T02:06:09;100128.22;;;5.01;100.00
71774;BME280;59607;52.130;5.430;2024-02-26T02:08:37;100130.81;;;5.01;100.00
71774;BME280;59607;52.130;5.430;2024-02-26T02:11:10;100139.94;;;5.05;100.00
71774;BME280;59607;52.130;5.430;2024-02-26T02:13:38;100133.81;;;5.06;100.00
71774;BME280;59607;52.130;5.430;2024-02-26T02:16:13;100129.41;;;5.06;100.00
71774;BME280;59607;52.130;5.430;2024-02-26T02:18:40;100135.44;;;5.07;100.00
71774;BME280;59607;52.130;5.430;2024-02-26T02:21:15;100142.09;;;5.10;100.00
71774;BME280;59607;52.130;5.430;2024-02-26T02:23:42;100141.16;;;5.11;100.00
71774;BME280;59607;52.130;5.430;2024-02-26T02:26:15;100142.66;;;5.13;100.00
71774;BME280;59607;52.130;5.430;2024-02-26T02:28:46;100147.69;;;5.15;100.00
71774;BME280;59607;52.130;5.430;2024-02-26T02:31:15;100144.28;;;5.14;100.00
71774;BME280;59607;52.130;5.430;2024-02-26T02:33:42;100154.38;;;5.17;100.00
71774;BME280;59607;52.130;5.430;2024-02-26T02:36:09;100150.69;;;5.20;100.00
71774;BME280;59607;52.130;5.430;2024-02-26T02:38:48;100154.91;;;5.21;100.00
71774;BME280;59607;52.130;5.430;2024-02-26T02:41:16;100166.97;;;5.22;100.00
71774;BME280;59607;52.130;5.430;2024-02-26T02:43:49;100158.06;;;5.25;100.00
71774;BME280;59607;52.130;5.430;2024-02-26T02:46:15;100161.63;;;5.24;100.00
71774;BME280;59607;52.130;5.430;2024-02-26T02:48:42;100165.84;;;5.25;100.00
71774;BME280;59607;52.130;5.430;2024-02-26T02:51:22;100166.53;;;5.27;100.00
71774;BME280;59607;52.130;5.430;2024-02-26T02:53:55;100166.69;;;5.25;100.00
71774;BME280;59607;52.130;5.430;2024-02-26T02:56:22;100171.59;;;5.28;100.00
71774;BME280;59607;52.130;5.430;2024-02-26T02:58:57;100177.59;;;5.29;100.00
71774;BME280;59607;52.130;5.430;2024-02-26T03:01:23;100177.31;;;5.32;100.00
71774;BME280;59607;52.130;5.430;2024-02-26T03:03:50;100183.47;;;5.31;100.00
71774;BME280;59607;52.130;5.430;2024-02-26T03:06:23;100181.16;;;5.28;100.00
71774;BME280;59607;52.130;5.430;2024-02-26T03:08:55;100185.69;;;5.26;100.00
71774;BME280;59607;52.130;5.430;2024-02-26T03:11:25;100187.34;;;5.27;100.00
71774;BME280;59607;52.130;5.430;2024-02-26T03:13:52;100201.13;;;5.27;100.00
71774;BME280;59607;52.130;5.430;2024-02-26T03:16:29;100206.34;;;5.27;100.00
71774;BME280;59607;52.130;5.430;2024-02-26T03:18:56;100208.00;;;5.28;100.00
71774;BME280;59607;52.130;5.430;2024-02-26T03:21:24;100217.56;;;5.28;100.00
71774;BME280;59607;52.130;5.430;2024-02-26T03:23:51;100216.09;;;5.25;100.00
71774;BME280;59607;52.130;5.430;2024-02-26T03:26:18;100214.56;;;5.23;100.00
71774;BME280;59607;52.130;5.430;2024-02-26T03:28:44;100213.78;;;5.22;100.00
71774;BME280;59607;52.130;5.430;2024-02-26T03:31:24;100221.56;;;5.22;100.00
71774;BME280;59607;52.130;5.430;2024-02-26T03:34:05;100229.53;;;5.21;100.00
71774;BME280;59607;52.130;5.430;2024-02-26T03:36:35;100222.13;;;5.16;100.00
71774;BME280;59607;52.130;5.430;2024-02-26T03:39:10;100219.66;;;5.14;100.00
71774;BME280;59607;52.130;5.430;2024-02-26T03:41:38;100232.66;;;5.14;100.00
71774;BME280;59607;52.130;5.430;2024-02-26T03:44:09;100224.06;;;5.14;100.00
71774;BME280;59607;52.130;5.430;2024-02-26T03:46:39;100226.94;;;5.11;100.00
71774;BME280;59607;52.130;5.430;2024-02-26T03:49:08;100235.69;;;5.10;100.00
71774;BME280;59607;52.130;5.430;2024-02-26T03:51:35;100234.88;;;5.09;100.00
71774;BME280;59607;52.130;5.430;2024-02-26T03:54:04;100232.44;;;5.08;100.00
71774;BME280;59607;52.130;5.430;2024-02-26T03:56:31;100232.56;;;5.06;100.00
71774;BME280;59607;52.130;5.430;2024-02-26T03:58:57;100231.75;;;5.05;100.00
71774;BME280;59607;52.130;5.430;2024-02-26T04:01:34;100230.09;;;5.04;100.00
71774;BME280;59607;52.130;5.430;2024-02-26T04:04:00;100225.72;;;5.05;100.00
71774;BME280;59607;52.130;5.430;2024-02-26T04:06:27;100227.50;;;5.04;100.00
71774;BME280;59607;52.130;5.430;2024-02-26T04:08:57;100230.09;;;5.04;100.00
71774;BME280;59607;52.130;5.430;2024-02-26T04:11:24;100238.03;;;5.03;100.00
71774;BME280;59607;52.130;5.430;2024-02-26T04:13:50;100237.22;;;5.02;100.00
71774;BME280;59607;52.130;5.430;2024-02-26T04:16:23;100239.81;;;5.02;100.00
71774;BME280;59607;52.130;5.430;2024-02-26T04:18:49;100247.63;;;5.02;100.00
71774;BME280;59607;52.130;5.430;2024-02-26T04:21:16;100253.38;;;5.06;100.00
71774;BME280;59607;52.130;5.430;2024-02-26T04:23:50;100245.44;;;5.08;100.00
71774;BME280;59607;52.130;5.430;2024-02-26T04:26:16;100243.78;;;5.06;100.00
71774;BME280;59607;52.130;5.430;2024-02-26T04:28:45;100249.94;;;5.05;100.00
71774;BME280;59607;52.130;5.430;2024-02-26T04:31:14;100248.97;;;5.06;100.00
71774;BME280;59607;52.130;5.430;2024-02-26T04:33:41;100255.81;;;5.08;100.00
71774;BME280;59607;52.130;5.430;2024-02-26T04:36:25;100270.31;;;5.10;100.00
71774;BME280;59607;52.130;5.430;2024-02-26T04:39:00;100264.13;;;5.11;100.00
71774;BME280;59607;52.130;5.430;2024-02-26T04:41:33;100263.06;;;5.14;100.00
71774;BME280;59607;52.130;5.430;2024-02-26T04:44:02;100264.69;;;5.15;100.00
71774;BME280;59607;52.130;5.430;2024-02-26T04:46:34;100265.66;;;5.14;100.00
71774;BME280;59607;52.130;5.430;2024-02-26T04:49:01;100268.13;;;5.15;100.00
71774;BME280;59607;52.130;5.430;2024-02-26T04:51:27;100265.38;;;5.17;100.00
71774;BME280;59607;52.130;5.430;2024-02-26T04:53:54;100268.63;;;5.19;100.00
71774;BME280;59607;52.130;5.430;2024-02-26T04:56:26;100272.88;;;5.20;100.00
71774;BME280;59607;52.130;5.430;2024-02-26T04:58:52;100270.44;;;5.18;100.00
71774;BME280;59607;52.130;5.430;2024-02-26T05:01:19;100273.16;;;5.17;100.00
71774;BME280;59607;52.130;5.430;2024-02-26T05:04:04;100280.69;;;5.20;100.00
71774;BME280;59607;52.130;5.430;2024-02-26T05:06:33;100275.50;;;5.20;100.00
71774;BME280;59607;52.130;5.430;2024-02-26T05:09:01;100285.06;;;5.19;100.00
71774;BME280;59607;52.130;5.430;2024-02-26T05:11:35;100271.91;;;5.21;100.00
71774;BME280;59607;52.130;5.430;2024-02-26T05:14:01;100281.63;;;5.19;100.00
71774;BME280;59607;52.130;5.430;2024-02-26T05:16:34;100285.06;;;5.19;100.00
71774;BME280;59607;52.130;5.430;2024-02-26T05:19:04;100278.91;;;5.21;100.00
71774;BME280;59607;52.130;5.430;2024-02-26T05:21:33;100293.81;;;5.18;100.00
71774;BME280;59607;52.130;5.430;2024-02-26T05:24:03;100287.94;;;5.16;100.00
71774;BME280;59607;52.130;5.430;2024-02-26T05:26:30;100270.56;;;5.17;100.00
71774;BME280;59607;52.130;5.430;2024-02-26T05:29:00;100293.28;;;5.15;100.00
71774;BME280;59607;52.130;5.430;2024-02-26T05:31:34;100287.25;;;5.14;100.00
71774;BME280;59607;52.130;5.430;2024-02-26T05:34:03;100290.81;;;5.13;100.00
71774;BME280;59607;52.130;5.430;2024-02-26T05:36:33;100296.84;;;5.14;100.00
71774;BME280;59607;52.130;5.430;2024-02-26T05:39:03;100296.31;;;5.10;100.00
71774;BME280;59607;52.130;5.430;2024-02-26T05:41:43;100303.13;;;5.11;100.00
71774;BME280;59607;52.130;5.430;2024-02-26T05:44:22;100300.53;;;5.11;100.00
71774;BME280;59607;52.130;5.430;2024-02-26T05:46:56;100295.47;;;5.10;100.00
71774;BME280;59607;52.130;5.430;2024-02-26T05:49:22;100311.06;;;5.10;100.00
71774;BME280;59607;52.130;5.430;2024-02-26T05:51:49;100310.28;;;5.09;100.00
71774;BME280;59607;52.130;5.430;2024-02-26T05:54:21;100312.03;;;5.09;100.00
71774;BME280;59607;52.130;5.430;2024-02-26T05:56:48;100316.41;;;5.08;100.00
71774;BME280;59607;52.130;5.430;2024-02-26T05:59:17;100316.28;;;5.10;100.00
71774;BME280;59607;52.130;5.430;2024-02-26T06:01:43;100324.50;;;5.05;100.00
71774;BME280;59607;52.130;5.430;2024-02-26T06:04:10;100326.25;;;5.04;100.00
71774;BME280;59607;52.130;5.430;2024-02-26T06:06:41;100327.09;;;5.05;100.00
71774;BME280;59607;52.130;5.430;2024-02-26T06:09:11;100327.91;;;5.05;100.00
71774;BME280;59607;52.130;5.430;2024-02-26T06:11:38;100329.56;;;5.06;100.00
71774;BME280;59607;52.130;5.430;2024-02-26T06:14:10;100327.78;;;5.07;100.00
71774;BME280;59607;52.130;5.430;2024-02-26T06:16:39;100328.59;;;5.08;100.00
71774;BME280;59607;52.130;5.430;2024-02-26T06:19:09;100338.03;;;5.09;100.00
71774;BME280;59607;52.130;5.430;2024-02-26T06:21:45;100344.88;;;5.10;100.00
71774;BME280;59607;52.130;5.430;2024-02-26T06:24:17;100347.59;;;5.08;100.00
71774;BME280;59607;52.130;5.430;2024-02-26T06:26:44;100354.47;;;5.09;100.00
71774;BME280;59607;52.130;5.430;2024-02-26T06:29:10;100356.94;;;5.11;100.00
71774;BME280;59607;52.130;5.430;2024-02-26T06:31:42;100356.78;;;5.12;100.00
71774;BME280;59607;52.130;5.430;2024-02-26T06:34:09;100348.84;;;5.14;100.00
71774;BME280;59607;52.130;5.430;2024-02-26T06:36:38;100359.38;;;5.12;100.00
71774;BME280;59607;52.130;5.430;2024-02-26T06:39:07;100357.72;;;5.11;100.00
71774;BME280;59607;52.130;5.430;2024-02-26T06:41:37;100358.56;;;5.12;100.00
71774;BME280;59607;52.130;5.430;2024-02-26T06:44:08;100366.34;;;5.12;100.00
71774;BME280;59607;52.130;5.430;2024-02-26T06:46:34;100362.25;;;5.09;100.00
71774;BME280;59607;52.130;5.430;2024-02-26T06:49:04;100370.06;;;5.09;100.00
71774;BME280;59607;52.130;5.430;2024-02-26T06:51:43;100374.44;;;5.09;100.00
71774;BME280;59607;52.130;5.430;2024-02-26T06:54:23;100381.94;;;5.12;100.00
71774;BME280;59607;52.130;5.430;2024-02-26T06:57:03;100386.19;;;5.13;100.00
71774;BME280;59607;52.130;5.430;2024-02-26T06:59:33;100385.25;;;5.14;100.00
71774;BME280;59607;52.130;5.430;2024-02-26T07:02:02;100388.78;;;5.13;100.00
71774;BME280;59607;52.130;5.430;2024-02-26T07:04:28;100383.59;;;5.13;100.00
71774;BME280;59607;52.130;5.430;2024-02-26T07:07:03;100398.38;;;5.12;100.00
71774;BME280;59607;52.130;5.430;2024-02-26T07:09:31;100391.38;;;5.13;100.00
71774;BME280;59607;52.130;5.430;2024-02-26T07:12:11;100399.88;;;5.15;100.00
71774;BME280;59607;52.130;5.430;2024-02-26T07:14:38;100401.50;;;5.16;100.00
71774;BME280;59607;52.130;5.430;2024-02-26T07:17:11;100409.31;;;5.16;100.00
71774;BME280;59607;52.130;5.430;2024-02-26T07:19:38;100410.13;;;5.16;100.00
71774;BME280;59607;52.130;5.430;2024-02-26T07:22:11;100410.13;;;5.16;100.00
71774;BME280;59607;52.130;5.430;2024-02-26T07:24:38;100425.47;;;5.19;100.00
71774;BME280;59607;52.130;5.430;2024-02-26T07:27:05;100410.81;;;5.18;100.00
71774;BME280;59607;52.130;5.430;2024-02-26T07:29:34;100426.44;;;5.18;100.00
71774;BME280;59607;52.130;5.430;2024-02-26T07:32:01;100417.78;;;5.18;100.00
71774;BME280;59607;52.130;5.430;2024-02-26T07:34:27;100433.41;;;5.18;100.00
71774;BME280;59607;52.130;5.430;2024-02-26T07:37:00;100427.22;;;5.19;100.00
71774;BME280;59607;52.130;5.430;2024-02-26T07:39:27;100446.13;;;5.21;100.00
71774;BME280;59607;52.130;5.430;2024-02-26T07:42:02;100421.91;;;5.21;100.00
71774;BME280;59607;52.130;5.430;2024-02-26T07:44:29;100434.09;;;5.20;100.00
71774;BME280;59607;52.130;5.430;2024-02-26T07:46:58;100435.56;;;5.23;100.00
71774;BME280;59607;52.130;5.430;2024-02-26T07:49:28;100446.94;;;5.22;100.00
71774;BME280;59607;52.130;5.430;2024-02-26T07:51:55;100449.69;;;5.20;100.00
71774;BME280;59607;52.130;5.430;2024-02-26T07:54:41;100454.75;;;5.22;100.00
71774;BME280;59607;52.130;5.430;2024-02-26T07:57:14;100459.94;;;5.22;100.00
71774;BME280;59607;52.130;5.430;2024-02-26T07:59:52;100467.59;;;5.23;100.00
71774;BME280;59607;52.130;5.430;2024-02-26T08:02:18;100466.22;;;5.29;100.00
71774;BME280;59607;52.130;5.430;2024-02-26T08:04:51;100470.34;;;5.31;100.00
71774;BME280;59607;52.130;5.430;2024-02-26T08:07:20;100472.81;;;5.33;100.00
71774;BME280;59607;52.130;5.430;2024-02-26T08:09:47;100467.47;;;5.35;100.00
71774;BME280;59607;52.130;5.430;2024-02-26T08:12:28;100475.00;;;5.38;100.00
71774;BME280;59607;52.130;5.430;2024-02-26T08:14:55;100481.84;;;5.39;100.00
71774;BME280;59607;52.130;5.430;2024-02-26T08:17:21;100474.88;;;5.39;100.00
71774;BME280;59607;52.130;5.430;2024-02-26T08:19:48;100482.66;;;5.39;100.00
71774;BME280;59607;52.130;5.430;2024-02-26T08:22:15;100491.56;;;5.37;100.00
71774;BME280;59607;52.130;5.430;2024-02-26T08:24:50;100488.41;;;5.43;100.00
71774;BME280;59607;52.130;5.430;2024-02-26T08:27:23;100488.16;;;5.46;100.00
71774;BME280;59607;52.130;5.430;2024-02-26T08:29:53;100492.50;;;5.46;100.00
71774;BME280;59607;52.130;5.430;2024-02-26T08:32:19;100499.63;;;5.43;100.00
71774;BME280;59607;52.130;5.430;2024-02-26T08:34:53;100505.53;;;5.46;100.00
71774;BME280;59607;52.130;5.430;2024-02-26T08:37:20;100503.34;;;5.41;100.00
71774;BME280;59607;52.130;5.430;2024-02-26T08:39:49;100505.94;;;5.41;100.00
71774;BME280;59607;52.130;5.430;2024-02-26T08:42:16;100515.78;;;5.37;100.00
71774;BME280;59607;52.130;5.430;2024-02-26T08:44:42;100514.16;;;5.36;100.00
71774;BME280;59607;52.130;5.430;2024-02-26T08:47:09;100519.22;;;5.38;100.00
71774;BME280;59607;52.130;5.430;2024-02-26T08:49:45;100509.66;;;5.38;100.00
71774;BME280;59607;52.130;5.430;2024-02-26T08:52:12;100514.16;;;5.36;100.00
71774;BME280;59607;52.130;5.430;2024-02-26T08:54:44;100520.72;;;5.40;100.00
71774;BME280;59607;52.130;5.430;2024-02-26T08:57:11;100534.69;;;5.49;100.00
71774;BME280;59607;52.130;5.430;2024-02-26T08:59:38;100531.53;;;5.46;100.00
71774;BME280;59607;52.130;5.430;2024-02-26T09:02:10;100534.41;;;5.42;100.00
71774;BME280;59607;52.130;5.430;2024-02-26T09:04:37;100533.84;;;5.49;100.00
71774;BME280;59607;52.130;5.430;2024-02-26T09:07:04;100540.59;;;5.51;100.00
71774;BME280;59607;52.130;5.430;2024-02-26T09:09:32;100540.88;;;5.48;100.00
71774;BME280;59607;52.130;5.430;2024-02-26T09:11:58;100558.09;;;5.49;100.00
71774;BME280;59607;52.130;5.430;2024-02-26T09:14:27;100543.72;;;5.45;100.00
71774;BME280;59607;52.130;5.430;2024-02-26T09:16:57;100549.19;;;5.42;100.00
71774;BME280;59607;52.130;5.430;2024-02-26T09:19:25;100546.44;;;5.43;100.00
71774;BME280;59607;52.130;5.430;2024-02-26T09:22:01;100547.56;;;5.41;100.00
71774;BME280;59607;52.130;5.430;2024-02-26T09:24:27;100551.91;;;5.40;100.00
71774;BME280;59607;52.130;5.430;2024-02-26T09:26:59;100560.28;;;5.44;100.00
71774;BME280;59607;52.130;5.430;2024-02-26T09:29:28;100570.81;;;5.42;100.00
71774;BME280;59607;52.130;5.430;2024-02-26T09:31:55;100574.13;;;5.45;100.00
71774;BME280;59607;52.130;5.430;2024-02-26T09:34:40;100566.19;;;5.46;100.00
71774;BME280;59607;52.130;5.430;2024-02-26T09:37:10;100569.84;;;5.43;100.00
71774;BME280;59607;52.130;5.430;2024-02-26T09:39:50;100576.16;;;5.41;100.00
71774;BME280;59607;52.130;5.430;2024-02-26T09:42:18;100580.41;;;5.42;100.00
71774;BME280;59607;52.130;5.430;2024-02-26T09:44:55;100586.84;;;5.38;100.00
71774;BME280;59607;52.130;5.430;2024-02-26T09:47:31;100590.53;;;5.45;100.00
71774;BME280;59607;52.130;5.430;2024-02-26T09:50:01;100592.19;;;5.46;100.00
71774;BME280;59607;52.130;5.430;2024-02-26T09:52:31;100591.50;;;5.44;100.00
71774;BME280;59607;52.130;5.430;2024-02-26T09:54:59;100588.91;;;5.44;100.00
71774;BME280;59607;52.130;5.430;2024-02-26T09:57:26;100593.13;;;5.45;100.00
71774;BME280;59607;52.130;5.430;2024-02-26T09:59:54;100607.53;;;5.49;100.00
71774;BME280;59607;52.130;5.430;2024-02-26T10:02:30;100602.06;;;5.52;100.00
71774;BME280;59607;52.130;5.430;2024-02-26T10:04:59;100608.09;;;5.53;100.00
71774;BME280;59607;52.130;5.430;2024-02-26T10:07:30;100607.13;;;5.54;100.00
71774;BME280;59607;52.130;5.430;2024-02-26T10:09:57;100607.66;;;5.48;100.00
71774;BME280;59607;52.130;5.430;2024-02-26T10:12:30;100624.22;;;5.47;100.00
71774;BME280;59607;52.130;5.430;2024-02-26T10:14:57;100627.78;;;5.46;100.00
71774;BME280;59607;52.130;5.430;2024-02-26T10:17:32;100626.44;;;5.51;100.00
71774;BME280;59607;52.130;5.430;2024-02-26T10:20:15;100626.94;;;5.45;100.00
71774;BME280;59607;52.130;5.430;2024-02-26T10:22:45;100627.78;;;5.46;100.00
71774;BME280;59607;52.130;5.430;2024-02-26T10:25:21;100633.13;;;5.44;100.00
71774;BME280;59607;52.130;5.430;2024-02-26T10:27:48;100640.09;;;5.53;100.00
71774;BME280;59607;52.130;5.430;2024-02-26T10:30:21;100639.69;;;5.58;100.00
71774;BME280;59607;52.130;5.430;2024-02-26T10:32:49;100656.13;;;5.59;100.00
71774;BME280;59607;52.130;5.430;2024-02-26T10:35:19;100657.66;;;5.51;100.00
71774;BME280;59607;52.130;5.430;2024-02-26T10:37:50;100648.03;;;5.52;100.00
71774;BME280;59607;52.130;5.430;2024-02-26T10:40:25;100662.44;;;5.56;100.00
71774;BME280;59607;52.130;5.430;2024-02-26T10:42:51;100661.75;;;5.54;100.00
71774;BME280;59607;52.130;5.430;2024-02-26T10:45:20;100672.84;;;5.56;100.00
71774;BME280;59607;52.130;5.430;2024-02-26T10:47:50;100673.38;;;5.60;100.00
71774;BME280;59607;52.130;5.430;2024-02-26T10:50:17;100681.88;;;5.62;100.00
71774;BME280;59607;52.130;5.430;2024-02-26T10:52:55;100686.81;;;5.65;100.00
71774;BME280;59607;52.130;5.430;2024-02-26T10:55:22;100693.56;;;5.67;100.00
71774;BME280;59607;52.130;5.430;2024-02-26T10:58:06;100683.81;;;5.70;100.00
71774;BME280;59607;52.130;5.430;2024-02-26T11:00:39;100702.72;;;5.72;100.00
71774;BME280;59607;52.130;5.430;2024-02-26T11:03:08;100699.59;;;5.78;100.00
71774;BME280;59607;52.130;5.430;2024-02-26T11:05:56;100703.03;;;5.88;100.00
71774;BME280;59607;52.130;5.430;2024-02-26T11:08:28;100700.16;;;5.82;100.00
71774;BME280;59607;52.130;5.430;2024-02-26T11:10:55;100707.69;;;5.85;100.00
71774;BME280;59607;52.130;5.430;2024-02-26T11:13:28;100719.06;;;5.84;100.00
71774;BME280;59607;52.130;5.430;2024-02-26T11:16:06;100707.97;;;5.82;100.00
71774;BME280;59607;52.130;5.430;2024-02-26T11:18:33;100718.50;;;5.80;100.00
71774;BME280;59607;52.130;5.430;2024-02-26T11:21:06;100715.75;;;5.82;100.00
71774;BME280;59607;52.130;5.430;2024-02-26T11:23:35;100722.34;;;5.86;100.00
71774;BME280;59607;52.130;5.430;2024-02-26T11:26:07;100718.94;;;5.85;100.00
71774;BME280;59607;52.130;5.430;2024-02-26T11:28:43;100727.28;;;5.89;100.00
71774;BME280;59607;52.130;5.430;2024-02-26T11:31:16;100726.31;;;5.80;100.00
71774;BME280;59607;52.130;5.430;2024-02-26T11:33:53;100727.41;;;5.77;100.00
71774;BME280;59607;52.130;5.430;2024-02-26T11:36:24;100730.25;;;5.74;100.00
71774;BME280;59607;52.130;5.430;2024-02-26T11:38:59;100740.28;;;5.79;100.00
71774;BME280;59607;52.130;5.430;2024-02-26T11:41:26;100738.50;;;5.79;100.00
71774;BME280;59607;52.130;5.430;2024-02-26T11:46:32;100739.59;;;5.77;100.00
71774;BME280;59607;52.130;5.430;2024-02-26T11:51:53;100756.72;;;5.79;100.00
71774;BME280;59607;52.130;5.430;2024-02-26T11:54:55;100752.34;;;5.80;100.00
71774;BME280;59607;52.130;5.430;2024-02-26T11:57:40;100754.41;;;5.86;100.00
71774;BME280;59607;52.130;5.430;2024-02-26T12:00:13;100760.19;;;5.90;100.00
71774;BME280;59607;52.130;5.430;2024-02-26T12:02:55;100764.13;;;5.94;100.00
71774;BME280;59607;52.130;5.430;2024-02-26T12:05:35;100765.81;;;5.95;100.00
71774;BME280;59607;52.130;5.430;2024-02-26T12:08:08;100769.78;;;5.99;100.00
71774;BME280;59607;52.130;5.430;2024-02-26T12:10:39;100774.00;;;6.00;100.00
71774;BME280;59607;52.130;5.430;2024-02-26T12:13:16;100771.41;;;6.00;100.00
71774;BME280;59607;52.130;5.430;2024-02-26T12:15:57;100770.31;;;5.93;100.00
71774;BME280;59607;52.130;5.430;2024-02-26T12:18:28;100788.00;;;5.99;100.00
71774;BME280;59607;52.130;5.430;2024-02-26T12:21:04;100784.44;;;6.00;100.00
71774;BME280;59607;52.130;5.430;2024-02-26T12:23:31;100786.56;;;6.07;100.00
71774;BME280;59607;52.130;5.430;2024-02-26T12:25:59;100786.09;;;6.01;100.00
71774;BME280;59607;52.130;5.430;2024-02-26T12:28:49;100774.41;;;5.96;100.00
71774;BME280;59607;52.130;5.430;2024-02-26T12:31:16;100789.91;;;5.97;100.00
71774;BME280;59607;52.130;5.430;2024-02-26T12:33:51;100792.94;;;6.02;100.00
71774;BME280;59607;52.130;5.430;2024-02-26T12:36:18;100797.31;;;6.02;100.00
71774;BME280;59607;52.130;5.430;2024-02-26T12:38:51;100797.31;;;6.02;100.00
71774;BME280;59607;52.130;5.430;2024-02-26T12:41:22;100805.00;;;6.03;100.00
71774;BME280;59607;52.130;5.430;2024-02-26T12:43:49;100797.44;;;6.00;100.00
71774;BME280;59607;52.130;5.430;2024-02-26T12:46:21;100806.84;;;6.13;100.00
71774;BME280;59607;52.130;5.430;2024-02-26T12:48:48;100811.22;;;6.12;100.00
71774;BME280;59607;52.130;5.430;2024-02-26T12:51:18;100806.56;;;6.06;100.00
71774;BME280;59607;52.130;5.430;2024-02-26T12:53:49;100812.72;;;6.15;100.00
71774;BME280;59607;52.130;5.430;2024-02-26T12:56:24;100809.31;;;6.14;100.00
71774;BME280;59607;52.130;5.430;2024-02-26T12:58:52;100822.47;;;6.13;100.00
71774;BME280;59607;52.130;5.430;2024-02-26T13:01:22;100819.03;;;6.12;100.00
71774;BME280;59607;52.130;5.430;2024-02-26T13:03:57;100825.75;;;6.15;100.00
71774;BME280;59607;52.130;5.430;2024-02-26T13:06:32;100829.59;;;6.21;100.00
71774;BME280;59607;52.130;5.430;2024-02-26T13:09:01;100827.72;;;6.23;100.00
71774;BME280;59607;52.130;5.430;2024-02-26T13:11:34;100829.47;;;6.22;100.00
71774;BME280;59607;52.130;5.430;2024-02-26T13:14:00;100838.91;;;6.13;100.00